createdAt,value
2018-07-19T00:01:05.539Z,99.90
2018-07-19T00:06:14.873Z,99.90
2018-07-19T00:08:49.458Z,99.90
2018-07-19T00:11:24.029Z,99.90
2018-07-19T00:13:56.971Z,99.90
2018-07-19T00:16:29.853Z,99.90
2018-07-19T00:19:06.132Z,99.90
2018-07-19T00:21:38.525Z,99.90
2018-07-19T00:24:12.064Z,99.90
2018-07-19T00:26:44.332Z,99.90
2018-07-19T00:29:17.006Z,99.90
2018-07-19T00:31:51.025Z,99.90
2018-07-19T00:34:23.300Z,99.90
2018-07-19T00:36:55.989Z,99.90
2018-07-19T00:39:39.173Z,99.90
2018-07-19T00:42:11.200Z,99.90
2018-07-19T00:44:43.743Z,99.90
2018-07-19T00:47:16.776Z,99.90
2018-07-19T00:49:49.889Z,99.90
2018-07-19T00:52:21.948Z,99.90
2018-07-19T00:54:54.492Z,99.90
2018-07-19T00:57:27.071Z,99.90
2018-07-19T01:00:01.315Z,99.90
2018-07-19T01:02:33.507Z,99.90
2018-07-19T01:05:05.816Z,99.90
2018-07-19T01:07:37.965Z,99.90
2018-07-19T01:10:10.296Z,99.90
2018-07-19T01:12:42.802Z,99.90
2018-07-19T01:15:15.173Z,99.90
2018-07-19T01:17:48.085Z,99.90
2018-07-19T01:20:22.448Z,99.90
2018-07-19T01:22:55.869Z,99.90
2018-07-19T01:25:28.343Z,99.90
2018-07-19T01:28:00.499Z,99.90
2018-07-19T01:30:32.694Z,99.90
2018-07-19T01:33:04.676Z,99.90
2018-07-19T01:35:43.707Z,99.90
2018-07-19T01:38:24.755Z,99.90
2018-07-19T01:41:10.918Z,99.90
2018-07-19T01:43:50.030Z,99.90
2018-07-19T01:46:30.509Z,99.90
2018-07-19T01:49:05.472Z,99.90
2018-07-19T01:51:38.671Z,99.90
2018-07-19T01:54:18.517Z,99.90
2018-07-19T01:56:52.061Z,99.90
2018-07-19T01:59:26.728Z,99.90
2018-07-19T02:02:02.095Z,99.90
2018-07-19T02:04:35.566Z,99.90
2018-07-19T02:07:11.704Z,99.90
2018-07-19T02:09:49.071Z,99.90
2018-07-19T02:12:24.559Z,99.90
2018-07-19T02:14:57.716Z,99.90
2018-07-19T02:17:30.266Z,99.90
2018-07-19T02:20:03.545Z,99.90
2018-07-19T02:22:42.526Z,99.90
2018-07-19T02:25:18.410Z,99.90
2018-07-19T02:27:50.843Z,99.90
2018-07-19T02:30:24.430Z,99.90
2018-07-19T02:32:58.247Z,99.90
2018-07-19T02:35:31.778Z,99.90
2018-07-19T02:38:05.645Z,99.90
2018-07-19T02:40:37.826Z,99.90
2018-07-19T02:43:12.887Z,99.90
2018-07-19T02:45:46.065Z,99.90
2018-07-19T02:48:18.765Z,99.90
2018-07-19T02:50:51.236Z,99.90
2018-07-19T02:53:23.623Z,99.90
2018-07-19T02:55:55.944Z,99.90
2018-07-19T02:58:30.037Z,99.90
2018-07-19T03:01:06.258Z,99.90
2018-07-19T03:04:05.579Z,99.90
2018-07-19T03:06:38.655Z,99.90
2018-07-19T03:09:13.391Z,99.90
2018-07-19T03:11:47.468Z,99.90
2018-07-19T03:14:20.423Z,99.90
2018-07-19T03:16:53.985Z,99.90
2018-07-19T03:19:27.127Z,99.90
2018-07-19T03:22:00.574Z,99.90
2018-07-19T03:24:38.356Z,99.90
2018-07-19T03:27:12.368Z,99.90
2018-07-19T03:29:45.274Z,99.90
2018-07-19T03:32:19.113Z,99.90
2018-07-19T03:34:51.359Z,99.90
2018-07-19T03:37:24.296Z,99.90
2018-07-19T03:39:56.736Z,99.90
2018-07-19T03:42:30.846Z,99.90
2018-07-19T03:45:04.550Z,99.90
2018-07-19T03:47:37.143Z,99.90
2018-07-19T03:50:10.428Z,99.90
2018-07-19T03:52:44.490Z,99.90
2018-07-19T03:55:20.313Z,99.90
2018-07-19T03:57:51.830Z,99.90
2018-07-19T04:00:25.418Z,99.90
2018-07-19T04:02:59.124Z,99.90
2018-07-19T04:05:36.342Z,99.90
2018-07-19T04:08:08.641Z,99.90
2018-07-19T04:10:42.082Z,99.90
2018-07-19T04:13:15.277Z,99.90
2018-07-19T04:15:48.412Z,99.90
2018-07-19T04:18:20.962Z,99.90
2018-07-19T04:20:53.375Z,99.90
2018-07-19T04:23:26.191Z,99.90
2018-07-19T04:26:00.721Z,99.90
2018-07-19T04:28:33.147Z,99.90
2018-07-19T04:31:06.369Z,99.90
2018-07-19T04:33:38.612Z,99.90
2018-07-19T04:36:11.961Z,99.90
2018-07-19T04:38:44.235Z,99.90
2018-07-19T04:41:17.413Z,99.90
2018-07-19T04:43:50.461Z,99.90
2018-07-19T04:46:23.060Z,99.90
2018-07-19T04:48:55.365Z,99.90
2018-07-19T04:51:27.823Z,99.90
2018-07-19T04:54:00.340Z,99.90
2018-07-19T04:56:33.622Z,99.90
2018-07-19T04:59:06.223Z,99.90
2018-07-19T05:01:38.674Z,99.90
2018-07-19T05:04:11.093Z,99.90
2018-07-19T05:09:18.443Z,99.90
2018-07-19T05:11:51.214Z,99.90
2018-07-19T05:14:23.980Z,99.90
2018-07-19T05:16:56.189Z,99.90
2018-07-19T05:19:28.563Z,99.90
2018-07-19T05:22:01.049Z,99.90
2018-07-19T05:24:34.919Z,99.90
2018-07-19T05:27:10.836Z,99.90
2018-07-19T05:29:43.207Z,99.90
2018-07-19T05:32:15.667Z,99.90
2018-07-19T05:34:48.073Z,99.90
2018-07-19T05:37:21.902Z,99.90
2018-07-19T05:39:54.219Z,99.90
2018-07-19T05:42:26.737Z,99.90
2018-07-19T05:44:59.270Z,99.90
2018-07-19T05:47:39.995Z,99.90
2018-07-19T05:50:12.377Z,99.90
2018-07-19T05:52:45.188Z,99.90
2018-07-19T05:55:17.623Z,99.90
2018-07-19T05:57:50.433Z,99.90
2018-07-19T06:00:22.812Z,99.90
2018-07-19T06:02:55.287Z,99.90
2018-07-19T06:05:28.701Z,99.90
2018-07-19T06:08:04.357Z,99.90
2018-07-19T06:10:36.674Z,99.90
2018-07-19T06:13:09.914Z,99.90
2018-07-19T06:15:42.206Z,99.90
2018-07-19T06:18:15.436Z,99.90
2018-07-19T06:20:48.100Z,99.90
2018-07-19T06:23:21.578Z,99.90
2018-07-19T06:25:54.516Z,99.90
2018-07-19T06:28:52.955Z,99.90
2018-07-19T06:31:25.655Z,99.90
2018-07-19T06:33:58.321Z,99.90
2018-07-19T06:36:30.896Z,99.90
2018-07-19T06:39:03.620Z,99.90
2018-07-19T06:41:36.004Z,99.90
2018-07-19T06:44:08.500Z,99.90
2018-07-19T06:46:41.057Z,99.90
2018-07-19T06:49:13.664Z,99.90
2018-07-19T06:51:47.439Z,99.90
2018-07-19T06:54:20.054Z,99.90
2018-07-19T06:56:52.576Z,99.90
2018-07-19T06:59:26.092Z,99.90
2018-07-19T07:04:31.481Z,99.90
2018-07-19T07:07:04.593Z,99.90
2018-07-19T07:09:37.784Z,99.90
2018-07-19T07:12:10.210Z,99.90
2018-07-19T07:14:42.642Z,99.90
2018-07-19T07:17:15.566Z,99.90
2018-07-19T07:19:47.908Z,99.90
2018-07-19T07:22:20.200Z,99.90
2018-07-19T07:24:53.196Z,99.90
2018-07-19T07:27:25.997Z,99.90
2018-07-19T07:30:00.747Z,99.90
2018-07-19T07:32:33.207Z,99.90
2018-07-19T07:35:06.172Z,99.90
2018-07-19T07:37:39.436Z,99.90
2018-07-19T07:40:12.042Z,99.90
2018-07-19T07:42:44.591Z,99.90
2018-07-19T07:45:17.279Z,99.90
2018-07-19T07:47:49.689Z,99.90
2018-07-19T07:50:24.976Z,99.90
2018-07-19T07:52:57.603Z,99.90
2018-07-19T07:55:31.395Z,99.90
2018-07-19T07:58:03.729Z,99.90
2018-07-19T08:00:36.572Z,99.90
2018-07-19T08:03:08.862Z,99.90
2018-07-19T08:05:41.330Z,99.90
2018-07-19T08:08:13.828Z,99.90
2018-07-19T08:10:46.731Z,99.90
2018-07-19T08:13:17.201Z,99.90
2018-07-19T08:15:49.674Z,99.90
2018-07-19T08:18:22.048Z,99.90
2018-07-19T08:20:54.389Z,99.90
2018-07-19T08:23:26.570Z,99.90
2018-07-19T08:25:59.489Z,99.90
2018-07-19T08:28:32.148Z,99.90
2018-07-19T08:31:05.993Z,99.90
2018-07-19T08:33:36.895Z,99.90
2018-07-19T08:36:10.172Z,99.90
2018-07-19T08:38:42.714Z,99.90
2018-07-19T08:41:13.558Z,99.90
2018-07-19T08:43:44.264Z,99.90
2018-07-19T08:46:16.580Z,99.90
2018-07-19T08:48:49.041Z,99.90
2018-07-19T08:51:21.766Z,99.90
2018-07-19T08:53:54.348Z,99.90
2018-07-19T08:56:26.860Z,99.90
2018-07-19T08:58:59.109Z,99.90
2018-07-19T09:01:31.732Z,99.90
2018-07-19T09:04:04.305Z,99.90
2018-07-19T09:06:36.727Z,99.90
2018-07-19T09:09:08.727Z,99.90
2018-07-19T09:11:42.326Z,99.90
2018-07-19T09:14:13.036Z,99.90
2018-07-19T09:16:45.550Z,99.90
2018-07-19T09:19:17.966Z,99.90
2018-07-19T09:21:50.436Z,99.90
2018-07-19T09:24:22.808Z,99.90
2018-07-19T09:26:55.331Z,99.90
2018-07-19T09:29:28.009Z,99.90
2018-07-19T09:32:32.989Z,99.90
2018-07-19T09:35:05.117Z,99.90
2018-07-19T09:37:37.624Z,99.90
2018-07-19T09:40:09.988Z,99.90
2018-07-19T09:42:42.548Z,99.90
2018-07-19T09:45:15.012Z,99.90
2018-07-19T09:47:47.651Z,99.90
2018-07-19T09:55:54.946Z,99.90
2018-07-19T09:58:28.143Z,99.90
2018-07-19T10:01:03.838Z,99.90
2018-07-19T10:03:37.170Z,99.90
2018-07-19T10:08:41.129Z,99.90
2018-07-19T10:11:13.679Z,99.90
2018-07-19T10:16:44.773Z,99.90
2018-07-19T10:19:17.314Z,99.90
2018-07-19T10:21:50.667Z,99.90
2018-07-19T10:24:23.415Z,99.90
2018-07-19T10:26:56.040Z,99.90
2018-07-19T10:29:29.229Z,99.90
2018-07-19T10:32:01.458Z,99.90
2018-07-19T10:37:07.263Z,99.90
2018-07-19T10:39:40.077Z,99.90
2018-07-19T10:44:44.249Z,99.90
2018-07-19T10:49:47.519Z,99.90
2018-07-19T10:52:19.615Z,99.90
2018-07-19T10:54:56.123Z,99.90
2018-07-19T10:57:28.526Z,99.90
2018-07-19T11:00:00.908Z,99.90
2018-07-19T11:02:33.148Z,99.90
2018-07-19T11:05:08.742Z,99.90
2018-07-19T11:07:41.064Z,99.90
2018-07-19T11:10:13.951Z,99.90
2018-07-19T11:12:46.936Z,99.90
2018-07-19T11:15:21.351Z,99.90
2018-07-19T11:17:53.734Z,99.90
2018-07-19T11:20:27.672Z,99.90
2018-07-19T11:23:00.804Z,99.90
2018-07-19T11:25:33.178Z,99.90
2018-07-19T11:28:05.629Z,99.90
2018-07-19T11:30:38.000Z,99.90
2018-07-19T11:33:11.377Z,99.90
2018-07-19T11:35:44.644Z,99.90
2018-07-19T11:38:17.385Z,99.90
2018-07-19T11:40:52.623Z,99.90
2018-07-19T11:43:25.036Z,99.90
2018-07-19T11:45:57.857Z,99.90
2018-07-19T11:48:32.787Z,99.90
2018-07-19T11:51:07.528Z,99.90
2018-07-19T11:53:40.237Z,99.90
2018-07-19T11:56:13.103Z,99.90
2018-07-19T11:59:00.336Z,99.90
2018-07-19T12:01:33.652Z,99.90
2018-07-19T12:04:07.397Z,99.90
2018-07-19T12:06:39.720Z,99.90
2018-07-19T12:09:14.358Z,99.90
2018-07-19T12:24:56.705Z,99.90
2018-07-19T12:32:38.922Z,99.90
2018-07-19T13:19:31.755Z,99.90
2018-07-19T13:39:52.441Z,99.90
2018-07-19T13:52:38.540Z,99.90
2018-07-19T14:11:12.298Z,99.90
2018-07-19T14:41:34.697Z,99.90
2018-07-19T14:46:41.454Z,99.90
2018-07-19T14:56:48.827Z,99.90
2018-07-19T14:59:21.961Z,97.70
2018-07-19T15:01:57.671Z,95.90
2018-07-19T15:04:30.108Z,94.80
2018-07-19T15:07:02.671Z,91.40
2018-07-19T15:09:35.498Z,89.90
2018-07-19T15:12:16.842Z,91.60
2018-07-19T15:14:49.176Z,90.40
2018-07-19T15:17:19.896Z,85.10
2018-07-19T15:19:52.134Z,87.00
2018-07-19T15:22:24.134Z,83.90
2018-07-19T15:24:55.568Z,89.40
2018-07-19T15:27:27.145Z,91.50
2018-07-19T15:30:00.064Z,93.90
2018-07-19T15:32:33.780Z,96.40
2018-07-19T15:35:05.985Z,96.40
2018-07-19T15:37:39.081Z,95.80
2018-07-19T15:40:13.207Z,93.80
2018-07-19T15:42:46.038Z,90.40
2018-07-19T15:45:21.887Z,85.90
2018-07-19T15:47:53.550Z,78.50
2018-07-19T15:50:24.076Z,73.40
2018-07-19T15:52:56.110Z,68.00
2018-07-19T15:55:26.639Z,66.60
2018-07-19T15:57:58.899Z,63.80
2018-07-19T16:00:29.447Z,59.00
2018-07-19T16:03:00.049Z,59.60
2018-07-19T16:05:30.608Z,57.70
2018-07-19T16:08:02.271Z,57.60
2018-07-19T16:10:33.112Z,58.10
2018-07-19T16:13:05.538Z,56.80
2018-07-19T16:15:36.364Z,53.80
2018-07-19T16:18:10.045Z,53.60
2018-07-19T16:20:50.058Z,52.40
2018-07-19T16:23:25.157Z,53.50
2018-07-19T16:25:58.218Z,52.80
2018-07-19T16:31:21.845Z,52.40
2018-07-19T16:33:59.119Z,51.10
2018-07-19T16:39:25.709Z,49.70
2018-07-19T16:42:02.283Z,48.80
2018-07-19T16:44:37.140Z,49.40
2018-07-19T16:47:11.364Z,49.20
2018-07-19T16:49:43.420Z,48.50
2018-07-19T16:52:15.679Z,48.40
2018-07-19T16:54:49.349Z,47.30
2018-07-19T16:57:22.107Z,48.00
2018-07-19T16:59:55.446Z,48.00
2018-07-19T17:02:28.063Z,47.70
2018-07-19T17:05:00.347Z,48.80
2018-07-19T17:07:34.118Z,48.70
2018-07-19T17:10:06.424Z,49.70
2018-07-19T17:12:39.260Z,50.60
2018-07-19T17:15:12.820Z,51.10
2018-07-19T17:17:45.739Z,50.50
2018-07-19T17:20:19.270Z,50.50
2018-07-19T17:22:52.182Z,50.70
2018-07-19T17:25:24.533Z,50.10
2018-07-19T17:27:57.089Z,49.30
2018-07-19T17:30:34.336Z,47.30
2018-07-19T17:33:06.531Z,47.60
2018-07-19T17:35:43.353Z,47.70
2018-07-19T17:38:17.470Z,46.80
2018-07-19T17:41:03.120Z,47.60
2018-07-19T17:43:38.040Z,47.10
2018-07-19T17:46:14.635Z,46.90
2018-07-19T17:48:56.296Z,46.20
2018-07-19T17:57:09.097Z,46.00
2018-07-19T17:59:42.920Z,44.50
2018-07-19T18:02:16.157Z,44.20
2018-07-19T18:04:48.351Z,44.30
2018-07-19T18:07:22.214Z,44.30
2018-07-19T18:09:54.447Z,44.60
2018-07-19T18:12:28.049Z,43.80
2018-07-19T18:15:00.845Z,45.40
2018-07-19T18:17:35.500Z,47.00
2018-07-19T18:20:07.838Z,46.90
2018-07-19T18:22:41.450Z,46.70
2018-07-19T18:25:13.207Z,47.00
2018-07-19T18:27:43.902Z,47.20
2018-07-19T18:30:14.529Z,45.20
2018-07-19T18:32:49.581Z,44.30
2018-07-19T18:35:21.826Z,45.40
2018-07-19T18:37:54.132Z,45.90
2018-07-19T18:40:28.332Z,45.00
2018-07-19T18:43:02.751Z,44.10
2018-07-19T18:45:35.403Z,44.70
2018-07-19T18:48:07.911Z,44.70
2018-07-19T18:50:40.186Z,44.90
2018-07-19T18:53:12.517Z,45.60
2018-07-19T18:55:44.958Z,45.40
2018-07-19T18:58:18.577Z,45.90
2018-07-19T19:00:55.111Z,45.00
2018-07-19T19:03:28.370Z,45.50
2018-07-19T19:06:00.496Z,45.30
2018-07-19T19:08:32.723Z,44.00
2018-07-19T19:11:03.173Z,44.40
2018-07-19T19:13:35.563Z,45.40
2018-07-19T19:16:07.626Z,46.00
2018-07-19T19:18:40.102Z,44.20
2018-07-19T19:21:12.427Z,43.20
2018-07-19T19:23:47.191Z,43.90
2018-07-19T19:26:19.459Z,44.50
2018-07-19T19:28:51.816Z,43.40
2018-07-19T19:31:22.253Z,43.50
2018-07-19T19:33:54.654Z,42.90
2018-07-19T19:36:28.940Z,42.90
2018-07-19T19:39:01.135Z,43.00
2018-07-19T19:41:48.743Z,43.40
2018-07-19T19:44:33.410Z,42.20
2018-07-19T19:47:11.612Z,41.80
2018-07-19T19:49:49.974Z,39.70
2018-07-19T19:52:27.530Z,40.60
2018-07-19T19:55:05.003Z,40.50
2018-07-19T20:03:21.414Z,42.10
2018-07-19T20:06:08.329Z,41.20
2018-07-19T20:08:44.802Z,40.70
2018-07-19T20:11:23.891Z,40.90
2018-07-19T20:14:04.062Z,40.40
2018-07-19T20:16:45.107Z,40.10
2018-07-19T20:19:20.207Z,40.50
2018-07-19T20:22:13.096Z,40.10
2018-07-19T20:24:53.156Z,39.70
2018-07-19T20:30:10.623Z,39.80
2018-07-19T20:33:09.141Z,42.00
2018-07-19T20:36:06.830Z,41.80
2018-07-19T20:38:40.337Z,42.30
2018-07-19T20:41:17.273Z,42.00
2018-07-19T20:43:50.983Z,42.30
2018-07-19T20:49:39.425Z,40.40
2018-07-19T20:52:17.254Z,40.70
2018-07-19T20:54:51.694Z,40.80
2018-07-19T20:57:27.025Z,41.50
2018-07-19T21:00:06.463Z,41.40
2018-07-19T21:02:40.749Z,42.00
2018-07-19T21:12:06.354Z,41.20
2018-07-19T21:15:10.724Z,40.20
2018-07-19T21:25:52.020Z,41.40
2018-07-19T21:28:47.242Z,40.30
2018-07-19T21:31:27.147Z,40.30
2018-07-19T21:34:05.046Z,40.90
2018-07-19T21:36:40.668Z,41.00
2018-07-19T21:39:15.631Z,41.70
2018-07-19T21:41:50.369Z,42.00
2018-07-19T21:44:29.043Z,41.80
2018-07-19T21:47:04.522Z,41.90
2018-07-19T21:49:37.708Z,42.00
2018-07-19T21:57:36.377Z,43.60
2018-07-19T22:03:06.500Z,45.60
2018-07-19T22:05:46.236Z,46.80
2018-07-19T22:08:25.048Z,47.00
2018-07-19T22:10:57.644Z,47.40
2018-07-19T22:19:12.405Z,47.80
2018-07-19T22:21:49.218Z,48.20
2018-07-19T22:24:29.764Z,45.30
2018-07-19T22:27:02.164Z,46.20
2018-07-19T22:29:46.905Z,46.30
2018-07-19T22:32:19.729Z,47.00
2018-07-19T22:34:52.678Z,47.10
2018-07-19T22:37:34.299Z,48.20
2018-07-19T22:40:15.303Z,49.30
2018-07-19T22:43:00.011Z,50.30
2018-07-19T22:48:25.336Z,50.60
2018-07-19T22:51:05.061Z,51.10
2018-07-19T22:53:42.768Z,51.30
2018-07-19T22:56:15.199Z,52.10
2018-07-19T23:01:29.138Z,54.30
2018-07-19T23:04:13.648Z,54.50
2018-07-19T23:07:01.855Z,55.00
2018-07-19T23:09:47.883Z,55.60
2018-07-19T23:12:45.711Z,56.40
2018-07-19T23:15:31.812Z,57.50
2018-07-19T23:18:17.594Z,58.20
2018-07-19T23:21:09.213Z,57.80
2018-07-19T23:23:55.318Z,57.80
2018-07-19T23:26:41.793Z,57.60
2018-07-19T23:29:30.345Z,57.60
2018-07-19T23:32:16.165Z,57.20
2018-07-19T23:35:02.751Z,57.60
2018-07-19T23:37:49.212Z,57.90
2018-07-19T23:40:35.678Z,58.60
2018-07-19T23:43:22.280Z,59.30
2018-07-19T23:46:11.216Z,60.20
2018-07-19T23:48:58.801Z,60.80
2018-07-19T23:51:44.807Z,60.50
2018-07-19T23:54:31.222Z,60.30
2018-07-19T23:57:17.386Z,60.90
